Time;durP1;ratioP1;P1;durP2;ratioP2;P2;SDS_P1;SDS_P2;PMS_P1;PMS_P2;Temp;Humidity;BMP_temperature;BMP_pressure;BME280_temperature;BME280_humidity;BME280_pressure;Samples;Min_cycle;Max_cycle;Signal;HPM_P1;HPM_P2
2022/01/04 00:01:33;;;;;;;2.53;1.42;;;10.20;62.00;;;;;;6284845;22;20204;-90
2022/01/04 00:04:00;;;;;;;1.58;1.10;;;10.30;59.30;;;;;;6279193;22;20505;-89
2022/01/04 00:06:27;;;;;;;2.83;0.98;;;10.30;60.20;;;;;;6278699;22;20192;-89
2022/01/04 00:08:59;;;;;;;1.10;1.00;;;10.30;61.30;;;;;;6279578;22;20536;-90
2022/01/04 00:11:42;;;;;;;1.95;1.15;;;10.20;63.20;;;;;;6278439;22;20196;-89
2022/01/04 00:14:09;;;;;;;1.55;0.98;;;10.20;63.60;;;;;;6279581;22;20206;-89
2022/01/04 00:29:28;;;;;;;2.70;1.17;;;10.10;62.70;;;;;;6287992;22;20607;-87
2022/01/04 00:31:55;;;;;;;2.05;1.17;;;10.30;61.50;;;;;;6287451;22;20244;-86
2022/01/04 00:34:26;;;;;;;1.60;1.08;;;10.30;61.70;;;;;;6286943;22;20159;-87
2022/01/04 00:40:19;;;;;;;1.50;1.08;;;10.40;60.90;;;;;;6285938;22;20211;-86
2022/01/04 00:42:46;;;;;;;2.00;1.20;;;10.30;62.70;;;;;;6287153;22;20636;-86
2022/01/04 00:45:15;;;;;;;1.83;1.13;;;10.20;64.60;;;;;;6263322;22;20212;-86
2022/01/04 01:12:09;;;;;;;1.35;1.00;;;10.20;58.50;;;;;;6283121;22;20468;-86
2022/01/04 01:14:36;;;;;;;1.30;1.20;;;10.30;57.00;;;;;;6289615;22;20164;-86
2022/01/04 02:04:27;;;;;;;2.22;1.45;;;10.80;51.70;;;;;;6323186;22;20171;-86
2022/01/04 04:18:56;;;;;;;2.15;1.20;;;10.40;67.40;;;;;;6254128;22;20272;-86
2022/01/04 04:21:24;;;;;;;1.20;0.82;;;10.10;65.20;;;;;;6252439;22;20276;-86
2022/01/04 04:23:51;;;;;;;2.00;1.30;;;9.70;69.20;;;;;;6252218;23;20219;-86
2022/01/04 04:26:18;;;;;;;1.60;1.30;;;9.50;74.40;;;;;;6254274;22;20196;-86
2022/01/04 04:28:45;;;;;;;1.27;1.17;;;9.20;74.10;;;;;;6253252;23;20243;-87
2022/01/04 04:31:12;;;;;;;1.05;1.00;;;9.00;77.00;;;;;;6254046;22;20201;-87
2022/01/04 04:33:38;;;;;;;1.05;0.90;;;8.80;79.50;;;;;;6254227;23;20197;-86
2022/01/04 04:36:09;;;;;;;1.90;1.30;;;8.70;81.00;;;;;;6253181;22;20267;-87
2022/01/04 04:38:35;;;;;;;1.75;1.20;;;8.60;83.20;;;;;;6254298;23;20169;-86
2022/01/04 04:41:02;;;;;;;1.42;1.05;;;8.50;87.20;;;;;;6253856;22;20264;-87
2022/01/04 04:43:29;;;;;;;1.70;1.15;;;8.40;90.00;;;;;;6254687;23;20244;-87
2022/01/04 04:45:56;;;;;;;0.98;0.90;;;8.40;90.30;;;;;;6254342;22;20212;-86
2022/01/04 04:48:24;;;;;;;2.25;1.10;;;8.40;91.00;;;;;;6252943;23;20252;-86
2022/01/04 04:50:51;;;;;;;1.20;1.10;;;8.40;91.40;;;;;;6254480;22;20207;-86
2022/01/04 04:53:19;;;;;;;3.13;1.23;;;8.40;92.30;;;;;;6255146;23;20615;-86
2022/01/04 04:55:46;;;;;;;3.42;1.30;;;8.40;92.10;;;;;;6254653;22;20260;-87
2022/01/04 04:58:13;;;;;;;3.80;1.25;;;8.40;92.10;;;;;;6253643;23;20177;-86
2022/01/04 05:00:40;;;;;;;1.27;1.13;;;8.40;92.30;;;;;;6254815;22;20345;-86
2022/01/04 05:03:07;;;;;;;3.95;1.15;;;8.50;92.70;;;;;;6255894;23;20253;-86
2022/01/04 05:05:36;;;;;;;2.25;1.08;;;8.50;92.90;;;;;;6255298;22;20494;-86
2022/01/04 05:08:03;;;;;;;2.80;1.13;;;8.40;92.80;;;;;;6255538;23;20158;-88
2022/01/04 05:10:32;;;;;;;1.90;1.15;;;8.40;93.10;;;;;;6253876;23;20245;-86
2022/01/04 05:12:59;;;;;;;1.83;1.10;;;8.40;93.70;;;;;;6255637;23;20248;-87
2022/01/04 05:15:26;;;;;;;1.42;1.15;;;8.40;93.90;;;;;;6254348;23;20332;-87
2022/01/04 05:17:53;;;;;;;2.92;1.08;;;8.50;93.90;;;;;;6255445;22;20252;-86
2022/01/04 05:20:20;;;;;;;2.10;1.20;;;8.50;93.50;;;;;;6255080;23;20273;-86
2022/01/04 05:22:46;;;;;;;2.58;1.38;;;8.50;93.60;;;;;;6255291;23;20169;-86
2022/01/04 05:25:13;;;;;;;3.10;1.40;;;8.40;93.80;;;;;;6254506;22;20720;-86
2022/01/04 05:27:56;;;;;;;2.67;1.00;;;8.40;93.10;;;;;;6230962;23;20236;-86
2022/01/04 05:30:23;;;;;;;3.10;1.40;;;8.20;93.50;;;;;;6256304;22;20211;-87
2022/01/04 05:32:50;;;;;;;3.35;1.30;;;8.10;93.70;;;;;;6255305;23;20179;-86
2022/01/04 05:35:17;;;;;;;3.55;1.20;;;8.10;94.00;;;;;;6255137;22;20276;-87
2022/01/04 05:37:44;;;;;;;3.72;1.38;;;8.00;94.20;;;;;;6255839;22;20252;-86
2022/01/04 05:40:12;;;;;;;1.30;1.10;;;8.00;94.60;;;;;;6255529;22;20273;-87
2022/01/04 05:42:39;;;;;;;1.58;1.00;;;8.10;94.50;;;;;;6254573;23;20161;-87
2022/01/04 05:45:09;;;;;;;2.95;1.35;;;8.20;94.30;;;;;;6255160;22;20207;-86
2022/01/04 05:47:36;;;;;;;1.45;1.20;;;8.10;93.90;;;;;;6255549;22;20240;-86
2022/01/04 05:50:05;;;;;;;4.05;1.40;;;8.00;94.50;;;;;;6255613;22;20216;-86
2022/01/04 05:52:53;;;;;;;2.35;1.60;;;8.00;95.40;;;;;;6255090;22;20154;-86
2022/01/04 05:55:20;;;;;;;4.75;1.27;;;7.90;95.70;;;;;;6255803;22;20193;-86
2022/01/04 05:57:47;;;;;;;2.00;1.40;;;7.90;95.70;;;;;;6255744;22;20245;-86
2022/01/04 06:00:17;;;;;;;5.03;1.30;;;7.90;95.70;;;;;;6255272;22;20712;-86
2022/01/04 06:02:58;;;;;;;3.20;1.30;;;7.80;95.70;;;;;;6255434;22;20153;-86
2022/01/04 06:05:25;;;;;;;3.38;1.30;;;7.80;95.70;;;;;;6255240;22;20237;-86
2022/01/04 06:07:52;;;;;;;3.50;1.40;;;7.80;96.10;;;;;;6255743;22;20166;-86
2022/01/04 06:10:19;;;;;;;4.88;1.90;;;7.80;96.30;;;;;;6255456;22;20224;-86
2022/01/04 06:15:38;;;;;;;4.13;1.50;;;7.80;96.90;;;;;;6254902;22;20562;-87
2022/01/04 06:18:47;;;;;;;6.88;1.83;;;7.80;97.00;;;;;;6255316;22;20183;-87
2022/01/04 06:21:14;;;;;;;3.05;1.50;;;7.90;97.20;;;;;;6255500;22;20197;-86
2022/01/04 06:23:42;;;;;;;5.63;1.70;;;7.90;97.10;;;;;;6254787;22;20228;-85
2022/01/04 06:26:09;;;;;;;3.92;1.73;;;7.90;97.20;;;;;;6253681;22;20205;-86
2022/01/04 06:28:36;;;;;;;3.60;1.70;;;7.90;97.40;;;;;;6254267;22;20165;-86
2022/01/04 06:31:04;;;;;;;3.97;1.70;;;8.00;97.30;;;;;;6254116;22;20280;-87
2022/01/04 06:34:01;;;;;;;2.95;1.58;;;8.10;97.30;;;;;;6253333;22;20664;-86
2022/01/04 06:36:28;;;;;;;5.30;1.45;;;7.90;97.20;;;;;;6253308;23;20256;-87
2022/01/04 06:38:55;;;;;;;2.10;1.33;;;7.80;97.60;;;;;;6254585;22;20224;-87
2022/01/04 06:41:22;;;;;;;3.45;1.70;;;7.80;97.70;;;;;;6252570;23;20197;-86
2022/01/04 06:43:50;;;;;;;4.18;1.80;;;7.90;97.80;;;;;;6252900;23;20196;-86
2022/01/04 06:46:18;;;;;;;2.88;1.38;;;8.00;97.80;;;;;;6253140;22;20523;-86
2022/01/04 06:48:45;;;;;;;4.57;1.50;;;8.10;97.60;;;;;;6254156;22;20240;-88
2022/01/04 06:51:13;;;;;;;3.03;1.50;;;8.00;97.50;;;;;;6253237;22;20280;-87
2022/01/04 06:53:40;;;;;;;3.60;1.70;;;7.90;97.70;;;;;;6253335;22;20175;-86
2022/01/04 06:56:07;;;;;;;2.50;1.33;;;7.90;97.90;;;;;;6255466;22;20248;-86
2022/01/04 06:58:48;;;;;;;2.67;1.50;;;7.80;97.90;;;;;;6253581;22;20154;-86
2022/01/04 07:01:15;;;;;;;6.50;1.70;;;7.80;98.30;;;;;;6253454;22;20254;-86
2022/01/04 07:03:44;;;;;;;2.78;1.65;;;7.90;98.10;;;;;;6254060;22;20236;-86
2022/01/04 07:06:12;;;;;;;3.97;1.67;;;7.80;98.20;;;;;;6254470;22;20200;-86
2022/01/04 07:12:01;;;;;;;4.25;1.65;;;7.80;98.00;;;;;;6253914;22;20593;-86
2022/01/04 07:14:28;;;;;;;4.68;2.00;;;7.80;98.00;;;;;;6254862;22;20160;-86
2022/01/04 07:35:20;;;;;;;7.53;2.25;;;8.00;98.70;;;;;;6252527;22;20226;-86
2022/01/04 07:37:47;;;;;;;4.53;1.98;;;7.90;98.90;;;;;;6286008;22;20246;-86
2022/01/04 07:40:14;;;;;;;3.55;1.90;;;7.90;99.00;;;;;;6285588;22;20275;-86
2022/01/04 07:42:41;;;;;;;4.22;2.00;;;7.90;99.10;;;;;;6285357;22;20247;-86
2022/01/04 07:45:10;;;;;;;3.20;1.80;;;8.00;99.20;;;;;;6284899;22;20196;-86
2022/01/04 07:47:37;;;;;;;4.07;1.73;;;8.00;99.50;;;;;;6284897;22;20609;-85
2022/01/04 07:50:08;;;;;;;4.85;1.95;;;8.10;99.40;;;;;;6277221;22;20168;-86
2022/01/04 07:52:40;;;;;;;3.75;2.00;;;8.00;99.10;;;;;;6285809;22;20239;-86
2022/01/04 07:55:08;;;;;;;4.30;1.88;;;7.90;99.30;;;;;;6285509;22;20267;-86
2022/01/04 08:00:57;;;;;;;1.52;1.20;;;8.10;99.90;;;;;;6285093;22;20231;-86
2022/01/04 08:03:26;;;;;;;1.75;1.20;;;8.20;99.90;;;;;;6285959;22;20247;-86
2022/01/04 08:05:53;;;;;;;3.70;1.15;;;8.30;99.90;;;;;;6284355;22;20282;-86
2022/01/04 08:08:22;;;;;;;1.33;1.00;;;8.50;99.90;;;;;;6284993;22;20239;-86
2022/01/04 08:10:51;;;;;;;1.73;1.10;;;8.70;99.80;;;;;;6265680;22;20708;-86
2022/01/04 08:13:18;;;;;;;2.22;0.95;;;8.70;99.90;;;;;;6258335;22;20169;-86
2022/01/04 08:15:45;;;;;;;1.02;0.80;;;8.80;99.80;;;;;;6284470;22;20244;-86
2022/01/04 08:18:12;;;;;;;1.48;1.00;;;8.90;99.90;;;;;;6284977;22;20248;-86
2022/01/04 08:20:39;;;;;;;1.10;0.90;;;9.00;99.90;;;;;;6283810;22;20244;-86
2022/01/04 08:23:06;;;;;;;1.17;0.82;;;9.10;99.90;;;;;;6285448;22;20192;-86
2022/01/04 08:25:35;;;;;;;1.33;0.88;;;9.20;99.90;;;;;;6283554;22;20227;-86
2022/01/04 08:28:04;;;;;;;1.95;1.02;;;9.50;99.90;;;;;;6283238;22;20172;-86
2022/01/04 08:30:31;;;;;;;1.92;0.80;;;9.60;99.80;;;;;;6282040;22;20522;-86
2022/01/04 08:32:58;;;;;;;1.05;0.95;;;9.60;99.70;;;;;;6284325;22;20169;-86
2022/01/04 08:35:26;;;;;;;2.05;0.70;;;9.60;99.90;;;;;;6283156;22;20546;-86
2022/01/04 08:37:53;;;;;;;5.32;0.90;;;9.70;99.90;;;;;;6285754;22;20153;-86
2022/01/04 08:40:21;;;;;;;1.25;0.88;;;9.80;99.90;;;;;;6257877;22;20211;-86
2022/01/04 08:42:52;;;;;;;1.15;0.80;;;9.90;99.80;;;;;;6286031;22;20165;-86
2022/01/04 08:45:21;;;;;;;0.93;0.88;;;10.00;99.00;;;;;;6285468;22;20212;-86
2022/01/04 08:47:51;;;;;;;1.73;0.82;;;10.10;99.00;;;;;;6260643;22;20168;-86
2022/01/04 08:50:19;;;;;;;0.90;0.90;;;10.10;99.00;;;;;;6288093;22;20207;-86
2022/01/04 09:45:23;;;;;;;1.00;0.90;;;10.50;95.10;;;;;;6256230;22;20199;-87
2022/01/04 09:47:55;;;;;;;2.40;1.33;;;10.50;94.90;;;;;;6232134;23;20236;-87
2022/01/04 09:50:22;;;;;;;2.50;1.02;;;10.60;95.20;;;;;;6257784;22;20648;-87
2022/01/04 09:52:50;;;;;;;2.25;1.20;;;10.70;94.60;;;;;;6257344;23;20208;-88
2022/01/04 09:55:18;;;;;;;1.33;1.00;;;10.70;94.60;;;;;;6257516;22;20211;-87
2022/01/04 09:57:47;;;;;;;1.45;1.23;;;10.80;94.30;;;;;;6257840;23;20176;-87
2022/01/04 10:00:17;;;;;;;2.25;1.80;;;10.80;94.30;;;;;;6287604;22;20272;-87
2022/01/04 10:02:46;;;;;;;3.15;2.00;;;10.80;95.00;;;;;;6288294;22;20157;-87
2022/01/04 10:05:16;;;;;;;5.13;1.65;;;10.80;94.40;;;;;;6288060;22;20208;-87
2022/01/04 10:07:44;;;;;;;3.30;1.70;;;10.70;94.50;;;;;;6236160;22;20179;-87
2022/01/04 10:10:12;;;;;;;2.03;1.20;;;10.70;94.80;;;;;;6287319;22;20248;-87
2022/01/04 10:12:51;;;;;;;2.25;1.40;;;10.70;94.70;;;;;;6287855;22;20222;-87
2022/01/04 10:15:35;;;;;;;1.40;1.30;;;10.70;95.40;;;;;;6287737;22;20200;-88
2022/01/04 10:18:21;;;;;;;2.22;1.25;;;10.70;95.40;;;;;;6228729;23;20196;-87
2022/01/04 10:20:51;;;;;;;1.20;1.10;;;10.90;95.40;;;;;;6257319;23;20197;-87
2022/01/04 10:23:23;;;;;;;1.42;1.30;;;11.00;95.40;;;;;;6257291;23;20157;-87
2022/01/04 10:25:51;;;;;;;1.17;0.98;;;11.10;95.50;;;;;;6255557;23;20280;-87
2022/01/04 10:28:32;;;;;;;2.30;1.30;;;11.10;95.80;;;;;;6257590;23;20256;-87
2022/01/04 10:31:01;;;;;;;1.25;1.15;;;11.20;95.80;;;;;;6256262;23;20267;-87
2022/01/04 10:33:37;;;;;;;1.05;1.00;;;11.20;96.00;;;;;;6257131;23;20653;-87
2022/01/04 10:36:11;;;;;;;2.00;1.30;;;11.40;94.90;;;;;;6256987;23;20220;-87
2022/01/04 10:38:40;;;;;;;1.00;1.00;;;11.50;94.10;;;;;;6257476;23;20506;-87
2022/01/04 10:41:10;;;;;;;1.55;1.00;;;11.70;93.80;;;;;;6256473;23;20260;-87
2022/01/04 10:43:43;;;;;;;1.50;1.15;;;12.00;92.10;;;;;;6257419;23;20161;-87
2022/01/04 10:46:11;;;;;;;0.88;0.88;;;12.20;91.20;;;;;;6229972;23;20200;-87
2022/01/04 10:48:43;;;;;;;0.98;0.90;;;12.40;90.90;;;;;;6256774;23;20256;-87
2022/01/04 10:51:12;;;;;;;0.90;0.90;;;12.50;90.00;;;;;;6257735;23;20251;-87
2022/01/04 10:54:00;;;;;;;2.05;1.30;;;12.50;89.30;;;;;;6258157;23;20593;-87
2022/01/04 10:56:31;;;;;;;9.32;2.85;;;12.60;88.30;;;;;;6228284;23;20170;-86
2022/01/04 10:59:29;;;;;;;0.90;0.90;;;12.60;88.70;;;;;;6257603;23;20161;-87
2022/01/04 11:01:57;;;;;;;1.95;1.10;;;12.60;89.00;;;;;;6190761;23;20213;-87
2022/01/04 11:04:26;;;;;;;1.20;1.10;;;12.60;87.50;;;;;;6231784;23;20605;-87
2022/01/04 11:07:00;;;;;;;0.80;0.80;;;12.70;88.50;;;;;;6256709;23;20169;-87
2022/01/04 11:13:24;;;;;;;3.00;1.55;;;12.70;85.60;;;;;;6257967;23;20141;-87
2022/01/04 11:49:31;;;;;;;1.38;0.98;;;15.20;56.60;;;;;;6245160;22;20177;-89
2022/01/04 11:51:58;;;;;;;0.95;0.90;;;15.30;54.90;;;;;;6250776;23;20258;-89
2022/01/04 11:54:27;;;;;;;1.27;1.10;;;15.40;52.00;;;;;;6250841;23;20204;-88
2022/01/04 11:56:56;;;;;;;1.33;1.10;;;15.40;55.30;;;;;;6254999;23;20156;-87
2022/01/04 11:59:25;;;;;;;1.52;1.08;;;15.40;53.60;;;;;;6252346;23;20185;-87
2022/01/04 12:01:54;;;;;;;1.20;1.10;;;15.50;52.10;;;;;;6226291;23;20609;-88
2022/01/04 12:04:51;;;;;;;1.23;1.13;;;15.60;53.30;;;;;;6251069;23;20516;-88
2022/01/04 12:07:46;;;;;;;1.10;1.00;;;15.90;52.20;;;;;;6200370;23;20457;-87
2022/01/04 12:10:48;;;;;;;2.45;1.90;;;16.10;47.70;;;;;;6253345;23;20644;-87
2022/01/04 12:13:16;;;;;;;1.42;0.88;;;16.10;47.90;;;;;;6250444;23;20159;-87
2022/01/04 12:15:58;;;;;;;1.23;1.13;;;16.10;46.40;;;;;;6222575;22;20239;-87
2022/01/04 12:18:57;;;;;;;0.85;0.85;;;16.00;45.80;;;;;;6254419;23;20532;-88
2022/01/04 12:21:27;;;;;;;1.15;1.02;;;16.00;45.50;;;;;;6254309;23;20283;-86
2022/01/04 12:23:56;;;;;;;1.52;1.00;;;16.00;44.40;;;;;;6258091;23;20196;-86
2022/01/04 12:26:25;;;;;;;2.67;1.10;;;16.00;44.10;;;;;;6257316;23;20205;-86
2022/01/04 12:29:19;;;;;;;3.67;1.20;;;16.00;45.60;;;;;;6258829;23;20177;-87
2022/01/04 12:31:48;;;;;;;1.30;1.02;;;15.90;45.80;;;;;;6258383;23;20247;-87
2022/01/04 12:34:40;;;;;;;1.52;0.95;;;15.80;44.30;;;;;;6233092;23;20173;-87
2022/01/04 12:40:00;;;;;;;0.77;0.77;;;15.80;43.40;;;;;;6256382;23;20257;-86
2022/01/04 12:43:09;;;;;;;3.42;0.90;;;15.90;44.10;;;;;;6259434;23;20237;-87
2022/01/04 12:45:37;;;;;;;1.30;1.08;;;15.90;43.60;;;;;;6232833;23;20235;-87
2022/01/04 12:48:04;;;;;;;1.45;1.00;;;16.00;43.90;;;;;;6233202;23;20173;-86
2022/01/04 12:50:35;;;;;;;1.13;1.02;;;16.10;42.00;;;;;;6261278;23;20227;-86
2022/01/04 12:53:04;;;;;;;1.17;1.08;;;16.20;41.90;;;;;;6235406;23;20248;-87
2022/01/04 12:55:31;;;;;;;1.25;0.98;;;16.10;41.70;;;;;;6260230;23;20201;-87
2022/01/04 13:08:31;;;;;;;0.85;0.85;;;16.00;41.40;;;;;;6168165;23;20211;-87
2022/01/04 13:11:19;;;;;;;1.65;1.02;;;16.00;42.60;;;;;;6258107;22;20284;-86
2022/01/04 13:13:54;;;;;;;1.10;0.98;;;16.10;40.80;;;;;;6259321;23;20184;-87
2022/01/04 13:16:22;;;;;;;1.35;1.13;;;16.20;41.40;;;;;;6256409;22;20227;-87
2022/01/04 13:18:50;;;;;;;1.38;1.10;;;16.40;40.20;;;;;;6257423;23;20177;-87
2022/01/04 13:21:18;;;;;;;1.52;1.10;;;16.50;38.50;;;;;;6255645;22;20284;-88
2022/01/04 13:23:46;;;;;;;0.88;0.85;;;16.60;38.70;;;;;;6254969;23;20180;-87
2022/01/04 13:26:13;;;;;;;1.38;1.08;;;16.60;40.00;;;;;;6228315;23;20209;-86
2022/01/04 13:28:41;;;;;;;0.90;0.90;;;16.60;39.70;;;;;;6251517;23;20244;-86
2022/01/04 13:31:19;;;;;;;0.95;0.88;;;16.50;39.30;;;;;;6257134;23;20205;-87
2022/01/04 13:33:46;;;;;;;1.60;1.25;;;16.40;38.70;;;;;;6230640;23;20173;-87
2022/01/04 13:36:14;;;;;;;1.02;0.93;;;16.50;39.80;;;;;;6232617;23;20260;-87
2022/01/04 13:38:41;;;;;;;1.30;1.10;;;16.30;39.60;;;;;;6260849;23;20623;-86
2022/01/04 13:41:10;;;;;;;1.63;1.13;;;16.20;41.00;;;;;;6258630;23;20197;-87
2022/01/04 13:43:45;;;;;;;1.38;1.00;;;16.10;40.50;;;;;;6230702;23;20173;-87
2022/01/04 13:46:15;;;;;;;2.25;1.15;;;16.10;41.00;;;;;;6253052;23;20203;-87
2022/01/04 13:48:45;;;;;;;2.55;1.20;;;16.00;41.80;;;;;;6254782;23;20177;-86
2022/01/04 13:51:15;;;;;;;1.38;1.17;;;16.00;41.00;;;;;;6232096;23;20197;-87
2022/01/04 13:53:45;;;;;;;2.03;1.50;;;16.00;41.70;;;;;;6260219;23;20498;-87
2022/01/04 13:56:23;;;;;;;2.17;1.20;;;15.90;41.50;;;;;;6257838;23;20203;-87
2022/01/04 13:58:52;;;;;;;1.55;1.30;;;15.90;41.60;;;;;;6262103;23;20176;-87
2022/01/04 14:01:29;;;;;;;1.35;1.25;;;15.90;41.30;;;;;;6208939;23;20201;-88
2022/01/04 14:03:59;;;;;;;1.77;1.40;;;15.80;42.10;;;;;;6231004;23;20169;-87
2022/01/04 14:06:38;;;;;;;2.85;1.60;;;15.80;43.20;;;;;;6260338;22;20513;-87
2022/01/04 14:09:10;;;;;;;1.77;1.40;;;15.70;43.40;;;;;;6233621;23;20226;-86
2022/01/04 14:18:30;;;;;;;2.63;1.58;;;15.50;43.50;;;;;;6275359;22;20208;-86
2022/01/04 14:20:57;;;;;;;2.67;1.65;;;15.40;43.70;;;;;;6256278;22;20213;-86
2022/01/04 14:23:35;;;;;;;2.63;1.50;;;15.30;44.40;;;;;;6257445;22;20212;-87
2022/01/04 14:26:04;;;;;;;3.22;1.58;;;15.30;45.10;;;;;;6257344;22;20201;-86
2022/01/04 14:32:28;;;;;;;1.65;1.50;;;15.10;47.70;;;;;;6257837;23;20235;-87
2022/01/04 14:38:15;;;;;;;2.10;1.60;;;15.00;48.00;;;;;;6249538;22;20219;-87
2022/01/04 14:40:44;;;;;;;1.60;1.27;;;14.90;48.40;;;;;;6261968;22;20620;-87
2022/01/04 14:43:14;;;;;;;3.33;1.50;;;14.90;49.30;;;;;;6261378;22;20166;-87
2022/01/04 14:45:41;;;;;;;2.00;1.40;;;14.80;49.70;;;;;;6259469;23;20197;-86
2022/01/04 14:48:09;;;;;;;1.75;1.60;;;14.80;49.70;;;;;;6260470;23;20449;-86
2022/01/04 14:57:55;;;;;;;2.58;1.58;;;14.70;49.80;;;;;;6260300;22;20154;-86
2022/01/04 15:00:26;;;;;;;2.03;1.30;;;14.60;50.90;;;;;;6261461;22;20454;-87
2022/01/04 15:07:13;;;;;;;1.88;1.45;;;14.70;49.20;;;;;;6260310;22;20278;-88
2022/01/04 15:09:40;;;;;;;3.05;1.75;;;14.60;50.90;;;;;;6255285;23;20169;-87
2022/01/04 15:12:09;;;;;;;2.10;1.30;;;14.60;49.20;;;;;;6257221;22;20199;-86
2022/01/04 15:14:40;;;;;;;3.20;2.05;;;14.50;50.90;;;;;;6254431;23;20225;-86
2022/01/04 15:37:52;;;;;;;2.13;1.60;;;14.00;57.80;;;;;;6280807;22;20197;-87
2022/01/04 15:40:19;;;;;;;2.60;1.52;;;13.90;59.80;;;;;;6258737;22;20216;-87
2022/01/04 15:42:47;;;;;;;2.90;1.50;;;13.80;62.00;;;;;;6229958;23;20179;-87
2022/01/04 15:45:14;;;;;;;1.50;1.40;;;13.70;64.30;;;;;;6255309;22;20201;-86
2022/01/04 15:47:42;;;;;;;2.92;1.60;;;13.60;67.20;;;;;;6255907;23;20241;-87
2022/01/04 15:50:10;;;;;;;3.13;1.67;;;13.50;73.80;;;;;;6228726;23;20201;-87
2022/01/04 15:52:37;;;;;;;1.67;1.58;;;13.30;78.50;;;;;;6230474;23;20244;-87
2022/01/04 15:55:08;;;;;;;2.85;1.70;;;13.10;81.20;;;;;;6256030;23;20231;-87
2022/01/04 15:57:39;;;;;;;1.63;1.52;;;12.90;82.60;;;;;;6257250;23;20172;-87
2022/01/04 16:00:07;;;;;;;3.25;1.90;;;12.90;83.20;;;;;;6255806;23;20224;-87
2022/01/04 16:02:35;;;;;;;2.13;1.70;;;12.80;83.30;;;;;;6256349;23;20221;-87
2022/01/04 16:05:02;;;;;;;2.17;1.70;;;12.80;84.30;;;;;;6255956;23;20261;-87
2022/01/04 16:07:30;;;;;;;1.70;1.60;;;12.80;84.40;;;;;;6256398;23;20280;-87
2022/01/04 16:09:57;;;;;;;3.42;1.80;;;12.80;84.80;;;;;;6256684;23;20273;-87
2022/01/04 16:12:26;;;;;;;2.40;1.70;;;12.70;85.20;;;;;;6205265;23;20224;-87
2022/01/04 16:14:56;;;;;;;1.80;1.60;;;12.80;85.10;;;;;;6255582;23;20201;-87
2022/01/04 16:17:34;;;;;;;5.25;1.73;;;12.90;83.70;;;;;;6256460;22;20263;-87
2022/01/04 16:22:47;;;;;;;2.83;1.90;;;12.80;84.60;;;;;;6259664;23;20152;-87
2022/01/04 16:25:14;;;;;;;2.63;1.80;;;12.80;85.10;;;;;;6258081;23;20212;-87
2022/01/04 16:27:43;;;;;;;2.88;1.70;;;12.90;82.90;;;;;;6259582;23;20201;-88
2022/01/04 16:30:49;;;;;;;4.22;2.20;;;12.90;82.90;;;;;;6259126;23;20252;-87
2022/01/04 16:33:16;;;;;;;3.47;2.00;;;12.90;82.70;;;;;;6259067;23;20236;-87
2022/01/04 16:35:44;;;;;;;2.25;1.80;;;12.90;82.80;;;;;;6257988;23;20235;-86
2022/01/04 16:38:11;;;;;;;2.05;1.63;;;12.90;81.80;;;;;;6258996;22;20240;-86
2022/01/04 16:40:38;;;;;;;3.63;1.75;;;12.90;81.30;;;;;;6258984;22;20264;-86
2022/01/04 16:43:10;;;;;;;3.80;1.77;;;12.80;81.80;;;;;;6257469;23;20623;-86
2022/01/04 16:45:37;;;;;;;2.70;1.75;;;12.80;81.50;;;;;;6259338;22;20192;-86
2022/01/04 16:48:05;;;;;;;1.95;1.65;;;12.90;81.40;;;;;;6259333;22;20200;-87
2022/01/04 16:53:57;;;;;;;2.53;1.85;;;13.00;81.40;;;;;;6260345;23;20140;-87
2022/01/04 16:56:25;;;;;;;2.50;1.83;;;12.90;81.60;;;;;;6258153;22;20207;-87
2022/01/04 16:58:53;;;;;;;3.45;2.05;;;12.90;81.80;;;;;;6258123;22;20197;-87
2022/01/04 17:01:21;;;;;;;3.25;1.90;;;12.80;83.10;;;;;;6255861;23;20224;-87
2022/01/04 17:03:48;;;;;;;2.33;1.80;;;12.80;82.50;;;;;;6257546;22;20173;-88
2022/01/04 17:06:15;;;;;;;2.25;1.90;;;12.80;82.10;;;;;;6257261;22;20706;-87
2022/01/04 17:08:45;;;;;;;2.58;2.00;;;12.80;82.80;;;;;;6257382;22;20173;-86
2022/01/04 17:11:20;;;;;;;3.75;2.28;;;12.70;83.30;;;;;;6256137;22;20204;-87
2022/01/04 17:16:34;;;;;;;2.08;1.83;;;12.70;82.80;;;;;;6255698;22;20259;-87
2022/01/04 17:19:03;;;;;;;3.15;2.17;;;12.70;83.50;;;;;;6257830;22;20169;-87
2022/01/04 17:21:32;;;;;;;4.18;1.80;;;12.70;82.80;;;;;;6257373;22;20209;-87
2022/01/04 17:24:00;;;;;;;3.50;1.90;;;12.70;82.80;;;;;;6256890;22;20173;-89
2022/01/04 17:26:27;;;;;;;5.05;1.83;;;12.70;82.80;;;;;;6257997;22;20247;-87
2022/01/04 17:28:55;;;;;;;4.13;2.10;;;12.70;82.80;;;;;;6258842;22;20170;-87
2022/01/04 17:31:22;;;;;;;5.18;1.90;;;12.70;82.70;;;;;;6256496;22;20276;-87
2022/01/04 17:33:50;;;;;;;2.17;1.80;;;12.70;82.40;;;;;;6257991;22;20746;-86
2022/01/04 17:36:18;;;;;;;2.55;2.00;;;12.70;82.30;;;;;;6257691;22;20253;-87
2022/01/04 17:39:07;;;;;;;3.85;2.03;;;12.60;82.40;;;;;;6259977;22;20244;-87
2022/01/04 17:41:34;;;;;;;5.63;1.98;;;12.60;82.70;;;;;;6256711;22;20197;-87
2022/01/04 17:44:06;;;;;;;3.42;2.00;;;12.50;82.80;;;;;;6257386;22;20189;-87
2022/01/04 17:46:33;;;;;;;2.83;1.92;;;12.50;83.90;;;;;;6254423;23;20236;-87
2022/01/04 17:49:12;;;;;;;2.40;2.13;;;12.50;83.10;;;;;;6256599;22;20201;-87
2022/01/04 17:51:40;;;;;;;4.05;2.00;;;12.50;82.60;;;;;;6255976;23;20236;-87
2022/01/04 17:54:13;;;;;;;2.85;1.80;;;12.50;82.90;;;;;;6257272;23;20189;-87
2022/01/04 17:56:41;;;;;;;2.70;1.92;;;12.50;82.90;;;;;;6257392;22;20201;-87
2022/01/04 17:59:08;;;;;;;4.18;2.15;;;12.40;82.90;;;;;;6256461;22;20193;-87
2022/01/04 18:01:36;;;;;;;2.42;1.88;;;12.40;83.90;;;;;;6254903;23;20207;-87
2022/01/04 18:04:04;;;;;;;1.95;1.77;;;12.40;83.40;;;;;;6257207;22;20526;-87
2022/01/04 18:06:32;;;;;;;2.60;2.13;;;12.40;82.70;;;;;;6256916;22;20205;-87
2022/01/04 18:09:00;;;;;;;2.33;1.90;;;12.50;83.00;;;;;;6255318;22;20179;-86
2022/01/04 18:14:50;;;;;;;2.17;1.65;;;12.40;82.50;;;;;;6256959;23;20136;-86
2022/01/04 18:17:17;;;;;;;3.35;2.05;;;12.40;82.50;;;;;;6204894;22;1385256;-87
2022/01/04 18:19:44;;;;;;;2.80;1.85;;;12.30;83.30;;;;;;6257142;22;20579;-87
2022/01/04 18:22:13;;;;;;;2.85;1.90;;;12.30;83.80;;;;;;6257597;23;20193;-88
2022/01/04 18:25:08;;;;;;;4.78;2.10;;;12.30;83.50;;;;;;6257849;22;20244;-86
2022/01/04 18:27:36;;;;;;;4.90;2.10;;;12.20;84.40;;;;;;6256679;23;20193;-87
2022/01/04 18:30:03;;;;;;;2.90;1.70;;;12.20;84.70;;;;;;6257738;22;20248;-87
2022/01/04 18:32:30;;;;;;;2.55;1.83;;;12.20;85.00;;;;;;6257828;23;20205;-87
2022/01/04 18:35:11;;;;;;;3.67;1.90;;;12.10;85.70;;;;;;6257404;22;20220;-86
2022/01/04 18:37:40;;;;;;;3.35;1.70;;;12.20;86.50;;;;;;6258564;23;20189;-86
2022/01/04 18:40:10;;;;;;;3.47;2.13;;;12.20;86.40;;;;;;6257316;22;20272;-86
2022/01/04 18:42:37;;;;;;;3.80;2.03;;;12.20;87.60;;;;;;6257843;23;20154;-86
2022/01/04 18:45:16;;;;;;;2.33;1.70;;;12.10;89.40;;;;;;6257786;22;20204;-86
2022/01/04 18:51:05;;;;;;;1.50;1.10;;;11.60;88.40;;;;;;6257459;22;20165;-86
2022/01/04 18:53:34;;;;;;;0.88;0.88;;;11.10;86.60;;;;;;6255466;23;20173;-88
2022/01/04 18:56:03;;;;;;;0.80;0.65;;;10.90;86.30;;;;;;6254704;23;20552;-87
2022/01/04 18:58:32;;;;;;;0.70;0.70;;;10.70;87.20;;;;;;6254590;23;20173;-86
2022/01/04 19:00:59;;;;;;;0.98;0.88;;;10.60;87.80;;;;;;6254553;23;20250;-86
2022/01/04 19:03:26;;;;;;;0.75;0.75;;;10.50;87.50;;;;;;6255028;23;20203;-88
2022/01/04 19:05:53;;;;;;;1.00;0.80;;;10.40;88.30;;;;;;6254306;23;20205;-87
2022/01/04 19:08:21;;;;;;;1.42;0.90;;;10.30;88.10;;;;;;6254745;23;20512;-87
2022/01/04 19:10:49;;;;;;;0.80;0.80;;;10.20;88.50;;;;;;6253855;23;20220;-86
2022/01/04 19:13:16;;;;;;;1.38;0.85;;;10.10;90.20;;;;;;6228623;23;20243;-87
2022/01/04 19:15:43;;;;;;;0.95;0.90;;;10.10;90.30;;;;;;6254250;22;20200;-87
2022/01/04 19:18:11;;;;;;;1.10;1.00;;;10.10;90.30;;;;;;6255641;23;20179;-87
2022/01/04 19:20:38;;;;;;;3.65;1.20;;;10.20;91.00;;;;;;6254446;23;20201;-86
2022/01/04 19:23:07;;;;;;;1.23;1.13;;;10.10;91.80;;;;;;6255415;23;20217;-86
2022/01/04 19:25:35;;;;;;;1.42;1.30;;;10.10;91.80;;;;;;6254254;22;20200;-86
2022/01/04 19:28:04;;;;;;;1.75;1.30;;;10.10;91.70;;;;;;6254909;22;20200;-86
2022/01/04 19:30:32;;;;;;;1.40;1.30;;;9.90;92.30;;;;;;6254353;22;20252;-86
2022/01/04 19:33:22;;;;;;;2.95;1.63;;;9.90;92.40;;;;;;6254941;22;20172;-86
2022/01/04 19:38:35;;;;;;;1.50;1.40;;;9.80;92.30;;;;;;6254523;23;20257;-87
2022/01/04 19:41:02;;;;;;;1.35;1.25;;;9.70;92.50;;;;;;6253765;22;20217;-88
2022/01/04 19:43:31;;;;;;;1.70;1.40;;;9.60;92.50;;;;;;6253610;22;20219;-86
2022/01/04 19:46:01;;;;;;;1.35;1.23;;;9.50;92.80;;;;;;6253033;22;20228;-86
2022/01/04 19:48:28;;;;;;;1.60;1.50;;;9.50;92.90;;;;;;6252698;23;20264;-88
2022/01/04 19:51:17;;;;;;;1.65;1.42;;;9.50;93.00;;;;;;6253284;22;20201;-86
2022/01/04 19:53:46;;;;;;;1.40;1.30;;;9.40;92.60;;;;;;6254090;22;20181;-86
2022/01/04 19:56:16;;;;;;;2.30;1.50;;;9.40;92.70;;;;;;6252223;23;20197;-86
2022/01/04 19:58:45;;;;;;;1.40;1.30;;;9.40;92.60;;;;;;6254982;22;20157;-87
2022/01/04 20:01:14;;;;;;;1.60;1.50;;;9.30;92.40;;;;;;6252318;23;20272;-86
2022/01/04 20:03:41;;;;;;;1.45;1.35;;;9.20;92.80;;;;;;6254651;22;20241;-86